Terminal Aerodrome Forecast
Issued by NWS La Crosse, WI

Home | Current Version | Previous Version | Text Only | Print | Product List | Glossary On
Versions: 1 2 3 4 5 6 7 8 9 10 11 12 13 14 15 16 17 18 19 20 21
000
FTUS43 KARX 032330
TAFRST
TAF
KRST 032330Z 0400/0424 16005KT P6SM OVC022
     FM040200 15006KT P6SM -SN OVC020
     FM040500 16008KT 3SM -SN OVC010
     FM040700 16008KT 2SM -SN OVC003
     FM041600 18011KT P6SM OVC008
     FM042100 23010KT P6SM OVC010=

USA.gov is the U.S. government's official web portal to all federal, state and local government web resources and services.